sensor_id;sensor_type;location;lat;lon;timestamp;temperature;humidity
9544;DHT22;30418;51.45933468;7.33152330;2022-09-09T00:02:18;21.40;59.50
9544;DHT22;30418;51.45933468;7.33152330;2022-09-09T00:04:59;21.40;59.70
9544;DHT22;30418;51.45933468;7.33152330;2022-09-09T00:07:40;21.40;59.70
9544;DHT22;30418;51.45933468;7.33152330;2022-09-09T00:10:22;21.30;59.60
9544;DHT22;30418;51.45933468;7.33152330;2022-09-09T00:12:59;21.30;59.50
9544;DHT22;30418;51.45933468;7.33152330;2022-09-09T00:15:40;21.30;59.60
9544;DHT22;30418;51.45933468;7.33152330;2022-09-09T00:18:22;21.30;59.50
9544;DHT22;30418;51.45933468;7.33152330;2022-09-09T00:21:01;21.30;59.70
9544;DHT22;30418;51.45933468;7.33152330;2022-09-09T00:23:39;21.30;59.60
9544;DHT22;30418;51.45933468;7.33152330;2022-09-09T00:26:18;21.30;59.90
9544;DHT22;30418;51.45933468;7.33152330;2022-09-09T00:29:02;21.30;59.80
9544;DHT22;30418;51.45933468;7.33152330;2022-09-09T00:31:35;21.30;60.90
9544;DHT22;30418;51.45933468;7.33152330;2022-09-09T00:34:12;21.30;59.80
9544;DHT22;30418;51.45933468;7.33152330;2022-09-09T00:36:43;21.30;59.90
9544;DHT22;30418;51.45933468;7.33152330;2022-09-09T00:39:21;21.30;59.80
9544;DHT22;30418;51.45933468;7.33152330;2022-09-09T00:42:06;21.30;60.10
9544;DHT22;30418;51.45933468;7.33152330;2022-09-09T00:44:52;21.30;61.00
9544;DHT22;30418;51.45933468;7.33152330;2022-09-09T00:47:43;21.30;60.10
9544;DHT22;30418;51.45933468;7.33152330;2022-09-09T00:50:28;21.30;60.10
9544;DHT22;30418;51.45933468;7.33152330;2022-09-09T00:53:19;21.30;60.10
9544;DHT22;30418;51.45933468;7.33152330;2022-09-09T00:56:09;21.20;60.10
9544;DHT22;30418;51.45933468;7.33152330;2022-09-09T00:58:43;21.30;60.10
9544;DHT22;30418;51.45933468;7.33152330;2022-09-09T01:01:19;21.20;59.90
9544;DHT22;30418;51.45933468;7.33152330;2022-09-09T01:03:52;21.20;59.90
9544;DHT22;30418;51.45933468;7.33152330;2022-09-09T01:06:27;21.20;60.10
9544;DHT22;30418;51.45933468;7.33152330;2022-09-09T01:09:07;21.20;60.20
9544;DHT22;30418;51.45933468;7.33152330;2022-09-09T01:11:49;21.20;60.30
9544;DHT22;30418;51.45933468;7.33152330;2022-09-09T01:14:32;21.20;60.30
9544;DHT22;30418;51.45933468;7.33152330;2022-09-09T01:17:13;21.20;60.40
9544;DHT22;30418;51.45933468;7.33152330;2022-09-09T01:19:59;21.20;60.30
9544;DHT22;30418;51.45933468;7.33152330;2022-09-09T01:22:46;21.10;60.20
9544;DHT22;30418;51.45933468;7.33152330;2022-09-09T01:25:29;21.10;60.20
9544;DHT22;30418;51.45933468;7.33152330;2022-09-09T01:28:26;21.10;60.30
9544;DHT22;30418;51.45933468;7.33152330;2022-09-09T01:31:04;21.10;60.20
9544;DHT22;30418;51.45933468;7.33152330;2022-09-09T01:33:41;21.10;60.10
9544;DHT22;30418;51.45933468;7.33152330;2022-09-09T01:36:13;21.10;61.00
9544;DHT22;30418;51.45933468;7.33152330;2022-09-09T01:38:49;21.10;60.20
9544;DHT22;30418;51.45933468;7.33152330;2022-09-09T01:41:18;21.10;60.20
9544;DHT22;30418;51.45933468;7.33152330;2022-09-09T01:44:00;21.10;60.30
9544;DHT22;30418;51.45933468;7.33152330;2022-09-09T01:46:32;21.10;60.30
9544;DHT22;30418;51.45933468;7.33152330;2022-09-09T01:49:03;21.10;60.30
9544;DHT22;30418;51.45933468;7.33152330;2022-09-09T01:51:34;21.00;60.30
9544;DHT22;30418;51.45933468;7.33152330;2022-09-09T01:54:06;21.00;60.30
9544;DHT22;30418;51.45933468;7.33152330;2022-09-09T01:56:42;21.00;60.50
9544;DHT22;30418;51.45933468;7.33152330;2022-09-09T01:59:27;21.00;60.90
9544;DHT22;30418;51.45933468;7.33152330;2022-09-09T02:02:10;21.00;60.90
9544;DHT22;30418;51.45933468;7.33152330;2022-09-09T02:04:49;21.00;60.90
9544;DHT22;30418;51.45933468;7.33152330;2022-09-09T02:07:31;21.00;61.00
9544;DHT22;30418;51.45933468;7.33152330;2022-09-09T02:10:22;21.00;60.90
9544;DHT22;30418;51.45933468;7.33152330;2022-09-09T02:13:08;21.00;61.80
9544;DHT22;30418;51.45933468;7.33152330;2022-09-09T02:15:45;21.00;60.90
9544;DHT22;30418;51.45933468;7.33152330;2022-09-09T02:18:22;21.00;61.00
9544;DHT22;30418;51.45933468;7.33152330;2022-09-09T02:20:53;21.00;61.00
9544;DHT22;30418;51.45933468;7.33152330;2022-09-09T02:23:23;21.00;60.90
9544;DHT22;30418;51.45933468;7.33152330;2022-09-09T02:25:56;21.00;61.00
9544;DHT22;30418;51.45933468;7.33152330;2022-09-09T02:28:28;21.00;61.00
9544;DHT22;30418;51.45933468;7.33152330;2022-09-09T02:31:01;21.00;61.00
9544;DHT22;30418;51.45933468;7.33152330;2022-09-09T02:33:41;21.00;61.10
9544;DHT22;30418;51.45933468;7.33152330;2022-09-09T02:36:12;21.00;61.20
9544;DHT22;30418;51.45933468;7.33152330;2022-09-09T02:38:46;21.00;61.20
9544;DHT22;30418;51.45933468;7.33152330;2022-09-09T02:41:25;21.00;61.20
9544;DHT22;30418;51.45933468;7.33152330;2022-09-09T02:43:56;21.00;61.30
9544;DHT22;30418;51.45933468;7.33152330;2022-09-09T02:46:47;21.00;61.20
9544;DHT22;30418;51.45933468;7.33152330;2022-09-09T02:49:31;21.00;61.70
9544;DHT22;30418;51.45933468;7.33152330;2022-09-09T02:52:06;20.90;61.30
9544;DHT22;30418;51.45933468;7.33152330;2022-09-09T02:54:38;20.90;61.10
9544;DHT22;30418;51.45933468;7.33152330;2022-09-09T02:57:12;20.90;61.20
9544;DHT22;30418;51.45933468;7.33152330;2022-09-09T02:59:48;20.90;61.20
9544;DHT22;30418;51.45933468;7.33152330;2022-09-09T03:02:20;20.90;61.20
9544;DHT22;30418;51.45933468;7.33152330;2022-09-09T03:04:54;20.90;61.30
9544;DHT22;30418;51.45933468;7.33152330;2022-09-09T03:07:22;20.90;61.30
9544;DHT22;30418;51.45933468;7.33152330;2022-09-09T03:09:52;20.90;61.40
9544;DHT22;30418;51.45933468;7.33152330;2022-09-09T03:12:23;20.90;61.40
9544;DHT22;30418;51.45933468;7.33152330;2022-09-09T03:14:52;20.80;61.30
9544;DHT22;30418;51.45933468;7.33152330;2022-09-09T03:17:22;20.80;61.30
9544;DHT22;30418;51.45933468;7.33152330;2022-09-09T03:19:54;20.80;61.40
9544;DHT22;30418;51.45933468;7.33152330;2022-09-09T03:22:22;20.80;61.40
9544;DHT22;30418;51.45933468;7.33152330;2022-09-09T03:24:53;20.80;61.40
9544;DHT22;30418;51.45933468;7.33152330;2022-09-09T03:27:22;20.80;61.40
9544;DHT22;30418;51.45933468;7.33152330;2022-09-09T03:29:51;20.80;61.60
9544;DHT22;30418;51.45933468;7.33152330;2022-09-09T03:32:24;20.80;61.40
9544;DHT22;30418;51.45933468;7.33152330;2022-09-09T03:34:56;20.80;61.60
9544;DHT22;30418;51.45933468;7.33152330;2022-09-09T03:37:25;20.80;61.60
9544;DHT22;30418;51.45933468;7.33152330;2022-09-09T03:39:53;20.80;61.60
9544;DHT22;30418;51.45933468;7.33152330;2022-09-09T03:42:23;20.70;61.50
9544;DHT22;30418;51.45933468;7.33152330;2022-09-09T03:44:54;20.70;61.40
9544;DHT22;30418;51.45933468;7.33152330;2022-09-09T03:47:26;20.70;61.40
9544;DHT22;30418;51.45933468;7.33152330;2022-09-09T03:50:03;20.70;61.60
9544;DHT22;30418;51.45933468;7.33152330;2022-09-09T03:52:37;20.70;61.60
9544;DHT22;30418;51.45933468;7.33152330;2022-09-09T03:55:12;20.70;62.50
9544;DHT22;30418;51.45933468;7.33152330;2022-09-09T03:57:41;20.70;61.60
9544;DHT22;30418;51.45933468;7.33152330;2022-09-09T04:00:10;20.70;61.70
9544;DHT22;30418;51.45933468;7.33152330;2022-09-09T04:02:44;20.70;62.60
9544;DHT22;30418;51.45933468;7.33152330;2022-09-09T04:05:15;20.70;61.80
9544;DHT22;30418;51.45933468;7.33152330;2022-09-09T04:07:46;20.70;61.70
9544;DHT22;30418;51.45933468;7.33152330;2022-09-09T04:10:14;20.70;61.80
9544;DHT22;30418;51.45933468;7.33152330;2022-09-09T04:12:44;20.70;62.10
9544;DHT22;30418;51.45933468;7.33152330;2022-09-09T04:15:16;20.70;61.90
9544;DHT22;30418;51.45933468;7.33152330;2022-09-09T04:17:47;20.60;61.90
9544;DHT22;30418;51.45933468;7.33152330;2022-09-09T04:20:16;20.70;62.10
9544;DHT22;30418;51.45933468;7.33152330;2022-09-09T04:22:46;20.70;62.00
9544;DHT22;30418;51.45933468;7.33152330;2022-09-09T04:25:15;20.70;62.00
9544;DHT22;30418;51.45933468;7.33152330;2022-09-09T04:27:43;20.60;62.80
9544;DHT22;30418;51.45933468;7.33152330;2022-09-09T04:30:12;20.60;62.00
9544;DHT22;30418;51.45933468;7.33152330;2022-09-09T04:32:41;20.60;62.10
9544;DHT22;30418;51.45933468;7.33152330;2022-09-09T04:35:11;20.60;62.20
9544;DHT22;30418;51.45933468;7.33152330;2022-09-09T04:37:40;20.60;62.10
9544;DHT22;30418;51.45933468;7.33152330;2022-09-09T04:40:09;20.60;62.10
9544;DHT22;30418;51.45933468;7.33152330;2022-09-09T04:42:38;20.60;62.20
9544;DHT22;30418;51.45933468;7.33152330;2022-09-09T04:45:13;20.60;62.20
9544;DHT22;30418;51.45933468;7.33152330;2022-09-09T04:47:42;20.60;62.30
9544;DHT22;30418;51.45933468;7.33152330;2022-09-09T04:50:12;20.60;62.30
9544;DHT22;30418;51.45933468;7.33152330;2022-09-09T04:52:40;20.60;62.40
9544;DHT22;30418;51.45933468;7.33152330;2022-09-09T04:55:09;20.60;62.40
9544;DHT22;30418;51.45933468;7.33152330;2022-09-09T04:57:43;20.60;62.30
9544;DHT22;30418;51.45933468;7.33152330;2022-09-09T05:00:13;20.60;62.30
9544;DHT22;30418;51.45933468;7.33152330;2022-09-09T05:02:44;20.60;62.30
9544;DHT22;30418;51.45933468;7.33152330;2022-09-09T05:05:14;20.60;62.30
9544;DHT22;30418;51.45933468;7.33152330;2022-09-09T05:07:43;20.60;62.50
9544;DHT22;30418;51.45933468;7.33152330;2022-09-09T05:10:13;20.60;62.40
9544;DHT22;30418;51.45933468;7.33152330;2022-09-09T05:12:52;20.60;62.50
9544;DHT22;30418;51.45933468;7.33152330;2022-09-09T05:15:24;20.60;62.80
9544;DHT22;30418;51.45933468;7.33152330;2022-09-09T05:17:56;20.60;62.50
9544;DHT22;30418;51.45933468;7.33152330;2022-09-09T05:20:29;20.60;62.80
9544;DHT22;30418;51.45933468;7.33152330;2022-09-09T05:22:58;20.60;62.70
9544;DHT22;30418;51.45933468;7.33152330;2022-09-09T05:25:29;20.60;62.70
9544;DHT22;30418;51.45933468;7.33152330;2022-09-09T05:27:58;20.60;62.70
9544;DHT22;30418;51.45933468;7.33152330;2022-09-09T05:30:27;20.60;62.80
9544;DHT22;30418;51.45933468;7.33152330;2022-09-09T05:32:56;20.60;62.90
9544;DHT22;30418;51.45933468;7.33152330;2022-09-09T05:35:25;20.60;63.00
9544;DHT22;30418;51.45933468;7.33152330;2022-09-09T05:37:59;20.60;63.10
9544;DHT22;30418;51.45933468;7.33152330;2022-09-09T05:40:28;20.60;63.20
9544;DHT22;30418;51.45933468;7.33152330;2022-09-09T05:43:00;20.60;63.00
9544;DHT22;30418;51.45933468;7.33152330;2022-09-09T05:45:29;20.60;63.20
9544;DHT22;30418;51.45933468;7.33152330;2022-09-09T05:47:58;20.70;63.20
9544;DHT22;30418;51.45933468;7.33152330;2022-09-09T05:50:27;20.60;63.00
9544;DHT22;30418;51.45933468;7.33152330;2022-09-09T05:52:59;20.70;63.20
9544;DHT22;30418;51.45933468;7.33152330;2022-09-09T05:55:28;20.60;63.20
9544;DHT22;30418;51.45933468;7.33152330;2022-09-09T05:57:58;20.60;63.20
9544;DHT22;30418;51.45933468;7.33152330;2022-09-09T06:00:27;20.70;63.40
9544;DHT22;30418;51.45933468;7.33152330;2022-09-09T06:02:59;20.60;63.20
9544;DHT22;30418;51.45933468;7.33152330;2022-09-09T06:05:28;20.70;63.30
9544;DHT22;30418;51.45933468;7.33152330;2022-09-09T06:07:59;20.70;63.30
9544;DHT22;30418;51.45933468;7.33152330;2022-09-09T06:10:28;20.70;63.30
9544;DHT22;30418;51.45933468;7.33152330;2022-09-09T06:12:57;20.70;63.20
9544;DHT22;30418;51.45933468;7.33152330;2022-09-09T06:15:26;20.70;63.30
9544;DHT22;30418;51.45933468;7.33152330;2022-09-09T06:17:57;20.70;63.40
9544;DHT22;30418;51.45933468;7.33152330;2022-09-09T06:20:26;20.70;63.40
9544;DHT22;30418;51.45933468;7.33152330;2022-09-09T06:22:59;20.70;63.30
9544;DHT22;30418;51.45933468;7.33152330;2022-09-09T06:25:28;20.70;63.30
9544;DHT22;30418;51.45933468;7.33152330;2022-09-09T06:27:56;20.70;63.30
9544;DHT22;30418;51.45933468;7.33152330;2022-09-09T06:30:25;20.70;63.30
9544;DHT22;30418;51.45933468;7.33152330;2022-09-09T06:32:55;20.70;63.30
9544;DHT22;30418;51.45933468;7.33152330;2022-09-09T06:35:24;20.70;63.40
9544;DHT22;30418;51.45933468;7.33152330;2022-09-09T06:37:53;20.70;63.40
9544;DHT22;30418;51.45933468;7.33152330;2022-09-09T06:40:24;20.70;63.40
9544;DHT22;30418;51.45933468;7.33152330;2022-09-09T06:42:53;20.70;63.50
9544;DHT22;30418;51.45933468;7.33152330;2022-09-09T06:45:32;20.70;63.60
9544;DHT22;30418;51.45933468;7.33152330;2022-09-09T06:48:03;20.70;63.60
9544;DHT22;30418;51.45933468;7.33152330;2022-09-09T06:50:32;20.70;63.60
9544;DHT22;30418;51.45933468;7.33152330;2022-09-09T06:53:02;20.70;63.70
9544;DHT22;30418;51.45933468;7.33152330;2022-09-09T06:55:32;20.70;63.70
9544;DHT22;30418;51.45933468;7.33152330;2022-09-09T06:58:02;20.70;63.60
9544;DHT22;30418;51.45933468;7.33152330;2022-09-09T07:00:30;20.70;63.60
9544;DHT22;30418;51.45933468;7.33152330;2022-09-09T07:02:59;20.70;63.70
9544;DHT22;30418;51.45933468;7.33152330;2022-09-09T07:50:33;21.30;63.50
9544;DHT22;30418;51.45933468;7.33152330;2022-09-09T07:53:01;21.30;63.50
9544;DHT22;30418;51.45933468;7.33152330;2022-09-09T07:55:32;21.30;63.40
9544;DHT22;30418;51.45933468;7.33152330;2022-09-09T07:58:01;21.30;63.20
9544;DHT22;30418;51.45933468;7.33152330;2022-09-09T08:00:30;21.30;63.10
9544;DHT22;30418;51.45933468;7.33152330;2022-09-09T08:03:06;21.30;63.10
9544;DHT22;30418;51.45933468;7.33152330;2022-09-09T08:05:36;21.30;63.20
9544;DHT22;30418;51.45933468;7.33152330;2022-09-09T08:08:06;21.30;63.20
9544;DHT22;30418;51.45933468;7.33152330;2022-09-09T08:10:36;21.20;62.90
9544;DHT22;30418;51.45933468;7.33152330;2022-09-09T08:13:04;21.30;63.00
9544;DHT22;30418;51.45933468;7.33152330;2022-09-09T08:15:44;21.20;62.90
9544;DHT22;30418;51.45933468;7.33152330;2022-09-09T08:18:13;21.30;62.90
9544;DHT22;30418;51.45933468;7.33152330;2022-09-09T08:20:45;21.30;62.70
9544;DHT22;30418;51.45933468;7.33152330;2022-09-09T08:23:14;21.30;62.90
9544;DHT22;30418;51.45933468;7.33152330;2022-09-09T08:25:43;21.30;62.90
9544;DHT22;30418;51.45933468;7.33152330;2022-09-09T08:28:13;21.30;62.80
9544;DHT22;30418;51.45933468;7.33152330;2022-09-09T08:30:42;21.30;62.70
9544;DHT22;30418;51.45933468;7.33152330;2022-09-09T08:33:10;21.30;62.90
9544;DHT22;30418;51.45933468;7.33152330;2022-09-09T08:35:51;21.40;62.80
9544;DHT22;30418;51.45933468;7.33152330;2022-09-09T08:38:20;21.40;62.90
9544;DHT22;30418;51.45933468;7.33152330;2022-09-09T08:40:50;21.50;62.70
9544;DHT22;30418;51.45933468;7.33152330;2022-09-09T08:43:23;21.50;62.70
9544;DHT22;30418;51.45933468;7.33152330;2022-09-09T08:45:57;21.60;62.70
9544;DHT22;30418;51.45933468;7.33152330;2022-09-09T08:48:41;21.70;62.70
9544;DHT22;30418;51.45933468;7.33152330;2022-09-09T08:51:16;21.70;62.20
9544;DHT22;30418;51.45933468;7.33152330;2022-09-09T08:53:48;21.80;62.30
9544;DHT22;30418;51.45933468;7.33152330;2022-09-09T08:56:24;21.80;62.10
9544;DHT22;30418;51.45933468;7.33152330;2022-09-09T08:58:59;21.90;61.90
9544;DHT22;30418;51.45933468;7.33152330;2022-09-09T09:01:50;21.90;61.90
9544;DHT22;30418;51.45933468;7.33152330;2022-09-09T09:04:50;21.90;61.30
9544;DHT22;30418;51.45933468;7.33152330;2022-09-09T09:07:36;22.00;61.20
9544;DHT22;30418;51.45933468;7.33152330;2022-09-09T09:10:16;22.10;61.00
9544;DHT22;30418;51.45933468;7.33152330;2022-09-09T09:13:17;22.10;61.10
9544;DHT22;30418;51.45933468;7.33152330;2022-09-09T09:15:54;22.20;61.10
9544;DHT22;30418;51.45933468;7.33152330;2022-09-09T09:18:27;22.20;60.80
9544;DHT22;30418;51.45933468;7.33152330;2022-09-09T09:21:02;22.30;60.70
9544;DHT22;30418;51.45933468;7.33152330;2022-09-09T09:23:40;22.30;60.50
9544;DHT22;30418;51.45933468;7.33152330;2022-09-09T09:26:14;22.40;60.10
9544;DHT22;30418;51.45933468;7.33152330;2022-09-09T09:28:44;22.40;60.30
9544;DHT22;30418;51.45933468;7.33152330;2022-09-09T09:31:18;22.50;60.30
9544;DHT22;30418;51.45933468;7.33152330;2022-09-09T09:33:53;22.50;60.00
9544;DHT22;30418;51.45933468;7.33152330;2022-09-09T09:36:34;22.60;59.80
9544;DHT22;30418;51.45933468;7.33152330;2022-09-09T09:39:23;22.60;59.60
9544;DHT22;30418;51.45933468;7.33152330;2022-09-09T09:42:16;22.60;59.30
9544;DHT22;30418;51.45933468;7.33152330;2022-09-09T09:44:51;22.60;59.20
9544;DHT22;30418;51.45933468;7.33152330;2022-09-09T09:47:22;22.70;59.20
9544;DHT22;30418;51.45933468;7.33152330;2022-09-09T09:50:00;22.70;59.00
9544;DHT22;30418;51.45933468;7.33152330;2022-09-09T09:52:36;22.60;58.80
9544;DHT22;30418;51.45933468;7.33152330;2022-09-09T09:55:14;22.60;58.80
9544;DHT22;30418;51.45933468;7.33152330;2022-09-09T09:57:45;22.60;58.50
9544;DHT22;30418;51.45933468;7.33152330;2022-09-09T10:00:15;22.60;58.60
9544;DHT22;30418;51.45933468;7.33152330;2022-09-09T10:02:52;22.60;58.50
9544;DHT22;30418;51.45933468;7.33152330;2022-09-09T10:05:26;22.60;58.40
9544;DHT22;30418;51.45933468;7.33152330;2022-09-09T10:08:11;22.60;58.30
9544;DHT22;30418;51.45933468;7.33152330;2022-09-09T10:11:12;22.60;58.10
9544;DHT22;30418;51.45933468;7.33152330;2022-09-09T10:13:56;22.50;57.90
9544;DHT22;30418;51.45933468;7.33152330;2022-09-09T10:16:45;22.50;58.30
9544;DHT22;30418;51.45933468;7.33152330;2022-09-09T10:19:30;22.50;58.20
9544;DHT22;30418;51.45933468;7.33152330;2022-09-09T10:22:25;22.50;58.30
9544;DHT22;30418;51.45933468;7.33152330;2022-09-09T10:28:25;22.60;58.10
9544;DHT22;30418;51.45933468;7.33152330;2022-09-09T10:31:12;22.60;58.00
9544;DHT22;30418;51.45933468;7.33152330;2022-09-09T10:33:51;22.60;58.00
9544;DHT22;30418;51.45933468;7.33152330;2022-09-09T10:36:25;22.70;58.00
9544;DHT22;30418;51.45933468;7.33152330;2022-09-09T10:38:59;22.70;58.20
9544;DHT22;30418;51.45933468;7.33152330;2022-09-09T10:41:43;22.80;58.00
9544;DHT22;30418;51.45933468;7.33152330;2022-09-09T10:44:35;22.80;57.70
9544;DHT22;30418;51.45933468;7.33152330;2022-09-09T10:47:37;22.90;57.40
9544;DHT22;30418;51.45933468;7.33152330;2022-09-09T10:50:23;23.00;57.50
9544;DHT22;30418;51.45933468;7.33152330;2022-09-09T10:53:37;23.00;57.20
9544;DHT22;30418;51.45933468;7.33152330;2022-09-09T10:56:16;23.10;57.20
9544;DHT22;30418;51.45933468;7.33152330;2022-09-09T10:58:49;23.20;57.20
9544;DHT22;30418;51.45933468;7.33152330;2022-09-09T11:01:25;23.30;57.10
9544;DHT22;30418;51.45933468;7.33152330;2022-09-09T11:03:57;23.30;56.90
9544;DHT22;30418;51.45933468;7.33152330;2022-09-09T11:06:32;23.40;56.80
9544;DHT22;30418;51.45933468;7.33152330;2022-09-09T11:09:04;23.40;56.30
9544;DHT22;30418;51.45933468;7.33152330;2022-09-09T11:11:39;23.40;56.50
9544;DHT22;30418;51.45933468;7.33152330;2022-09-09T11:14:14;23.50;56.20
9544;DHT22;30418;51.45933468;7.33152330;2022-09-09T11:16:51;23.50;56.00
9544;DHT22;30418;51.45933468;7.33152330;2022-09-09T11:19:26;23.50;55.80
9544;DHT22;30418;51.45933468;7.33152330;2022-09-09T11:21:57;23.50;56.20
9544;DHT22;30418;51.45933468;7.33152330;2022-09-09T11:24:29;23.50;56.10
9544;DHT22;30418;51.45933468;7.33152330;2022-09-09T11:27:07;23.60;56.00
9544;DHT22;30418;51.45933468;7.33152330;2022-09-09T11:33:31;23.60;55.50
9544;DHT22;30418;51.45933468;7.33152330;2022-09-09T11:36:38;23.70;55.10
9544;DHT22;30418;51.45933468;7.33152330;2022-09-09T11:39:36;23.70;55.10
9544;DHT22;30418;51.45933468;7.33152330;2022-09-09T11:42:22;23.70;54.80
9544;DHT22;30418;51.45933468;7.33152330;2022-09-09T11:44:51;23.70;55.00
9544;DHT22;30418;51.45933468;7.33152330;2022-09-09T11:47:24;23.70;54.90
9544;DHT22;30418;51.45933468;7.33152330;2022-09-09T11:50:10;23.80;54.90
9544;DHT22;30418;51.45933468;7.33152330;2022-09-09T11:52:51;23.80;54.50
9544;DHT22;30418;51.45933468;7.33152330;2022-09-09T11:55:31;23.70;54.70
9544;DHT22;30418;51.45933468;7.33152330;2022-09-09T11:58:03;23.80;54.80
9544;DHT22;30418;51.45933468;7.33152330;2022-09-09T12:00:35;23.70;54.70
9544;DHT22;30418;51.45933468;7.33152330;2022-09-09T12:03:06;23.80;54.60
9544;DHT22;30418;51.45933468;7.33152330;2022-09-09T12:05:41;23.70;54.40
9544;DHT22;30418;51.45933468;7.33152330;2022-09-09T12:08:15;23.70;54.20
9544;DHT22;30418;51.45933468;7.33152330;2022-09-09T12:10:53;23.70;54.40
9544;DHT22;30418;51.45933468;7.33152330;2022-09-09T12:13:26;23.70;54.10
9544;DHT22;30418;51.45933468;7.33152330;2022-09-09T12:15:56;23.70;54.30
9544;DHT22;30418;51.45933468;7.33152330;2022-09-09T12:18:32;23.60;54.20
9544;DHT22;30418;51.45933468;7.33152330;2022-09-09T12:21:08;23.50;54.40
9544;DHT22;30418;51.45933468;7.33152330;2022-09-09T12:23:48;23.50;55.00
9544;DHT22;30418;51.45933468;7.33152330;2022-09-09T12:26:27;23.50;55.40
9544;DHT22;30418;51.45933468;7.33152330;2022-09-09T12:29:09;23.40;55.80
9544;DHT22;30418;51.45933468;7.33152330;2022-09-09T12:31:48;23.40;56.00
9544;DHT22;30418;51.45933468;7.33152330;2022-09-09T12:34:31;23.30;56.20
9544;DHT22;30418;51.45933468;7.33152330;2022-09-09T12:37:15;23.30;56.80
9544;DHT22;30418;51.45933468;7.33152330;2022-09-09T12:39:51;23.20;57.00
9544;DHT22;30418;51.45933468;7.33152330;2022-09-09T12:42:22;23.10;57.30
9544;DHT22;30418;51.45933468;7.33152330;2022-09-09T12:44:52;23.10;57.50
9544;DHT22;30418;51.45933468;7.33152330;2022-09-09T12:47:26;23.10;57.50
9544;DHT22;30418;51.45933468;7.33152330;2022-09-09T12:49:57;23.10;57.90
9544;DHT22;30418;51.45933468;7.33152330;2022-09-09T12:52:30;23.10;58.50
9544;DHT22;30418;51.45933468;7.33152330;2022-09-09T12:55:03;23.10;58.10
9544;DHT22;30418;51.45933468;7.33152330;2022-09-09T12:57:35;23.10;58.20
9544;DHT22;30418;51.45933468;7.33152330;2022-09-09T13:00:11;23.10;58.30
9544;DHT22;30418;51.45933468;7.33152330;2022-09-09T13:02:49;23.10;58.50
9544;DHT22;30418;51.45933468;7.33152330;2022-09-09T13:05:22;23.10;58.40
9544;DHT22;30418;51.45933468;7.33152330;2022-09-09T13:08:00;23.10;58.40
9544;DHT22;30418;51.45933468;7.33152330;2022-09-09T13:10:33;23.00;58.50
9544;DHT22;30418;51.45933468;7.33152330;2022-09-09T13:13:21;23.00;58.40
9544;DHT22;30418;51.45933468;7.33152330;2022-09-09T13:15:53;23.00;58.70
9544;DHT22;30418;51.45933468;7.33152330;2022-09-09T13:18:24;23.10;59.00
9544;DHT22;30418;51.45933468;7.33152330;2022-09-09T13:20:55;23.10;59.20
9544;DHT22;30418;51.45933468;7.33152330;2022-09-09T13:23:29;23.10;59.40
9544;DHT22;30418;51.45933468;7.33152330;2022-09-09T13:26:01;23.20;59.50
9544;DHT22;30418;51.45933468;7.33152330;2022-09-09T13:28:31;23.20;59.40
9544;DHT22;30418;51.45933468;7.33152330;2022-09-09T13:31:01;23.30;59.40
9544;DHT22;30418;51.45933468;7.33152330;2022-09-09T13:33:33;23.30;59.10
9544;DHT22;30418;51.45933468;7.33152330;2022-09-09T13:36:05;23.40;59.30
9544;DHT22;30418;51.45933468;7.33152330;2022-09-09T13:38:40;23.40;59.10
9544;DHT22;30418;51.45933468;7.33152330;2022-09-09T13:41:24;23.40;58.90
9544;DHT22;30418;51.45933468;7.33152330;2022-09-09T13:43:54;23.50;58.90
9544;DHT22;30418;51.45933468;7.33152330;2022-09-09T13:46:32;23.50;58.70
9544;DHT22;30418;51.45933468;7.33152330;2022-09-09T13:49:18;23.50;58.40
9544;DHT22;30418;51.45933468;7.33152330;2022-09-09T13:51:50;23.50;58.10
9544;DHT22;30418;51.45933468;7.33152330;2022-09-09T13:54:22;23.50;57.90
9544;DHT22;30418;51.45933468;7.33152330;2022-09-09T13:56:50;23.50;57.90
9544;DHT22;30418;51.45933468;7.33152330;2022-09-09T13:59:20;23.50;57.90
9544;DHT22;30418;51.45933468;7.33152330;2022-09-09T14:01:48;23.40;57.80
9544;DHT22;30418;51.45933468;7.33152330;2022-09-09T14:04:19;23.40;57.80
9544;DHT22;30418;51.45933468;7.33152330;2022-09-09T14:06:49;23.30;57.80
9544;DHT22;30418;51.45933468;7.33152330;2022-09-09T14:09:18;23.20;57.90
9544;DHT22;30418;51.45933468;7.33152330;2022-09-09T14:11:48;23.10;58.10
9544;DHT22;30418;51.45933468;7.33152330;2022-09-09T14:14:17;23.10;58.40
9544;DHT22;30418;51.45933468;7.33152330;2022-09-09T14:16:45;23.00;58.50
9544;DHT22;30418;51.45933468;7.33152330;2022-09-09T14:19:14;23.00;58.70
9544;DHT22;30418;51.45933468;7.33152330;2022-09-09T14:21:43;22.90;58.90
9544;DHT22;30418;51.45933468;7.33152330;2022-09-09T14:24:12;22.90;59.00
9544;DHT22;30418;51.45933468;7.33152330;2022-09-09T14:26:41;22.90;59.40
9544;DHT22;30418;51.45933468;7.33152330;2022-09-09T14:29:11;23.00;59.60
9544;DHT22;30418;51.45933468;7.33152330;2022-09-09T14:31:39;23.10;59.80
9544;DHT22;30418;51.45933468;7.33152330;2022-09-09T14:34:08;23.20;59.90
9544;DHT22;30418;51.45933468;7.33152330;2022-09-09T14:36:38;23.20;59.90
9544;DHT22;30418;51.45933468;7.33152330;2022-09-09T14:39:08;23.30;59.90
9544;DHT22;30418;51.45933468;7.33152330;2022-09-09T14:41:36;23.40;59.80
9544;DHT22;30418;51.45933468;7.33152330;2022-09-09T14:44:05;23.40;59.40
9544;DHT22;30418;51.45933468;7.33152330;2022-09-09T14:46:36;23.50;59.30
9544;DHT22;30418;51.45933468;7.33152330;2022-09-09T14:49:05;23.50;59.90
9544;DHT22;30418;51.45933468;7.33152330;2022-09-09T14:51:33;23.50;59.00
9544;DHT22;30418;51.45933468;7.33152330;2022-09-09T14:54:02;23.50;59.00
9544;DHT22;30418;51.45933468;7.33152330;2022-09-09T14:56:32;23.50;59.20
9544;DHT22;30418;51.45933468;7.33152330;2022-09-09T14:59:02;23.50;59.30
9544;DHT22;30418;51.45933468;7.33152330;2022-09-09T15:01:32;23.40;59.20
9544;DHT22;30418;51.45933468;7.33152330;2022-09-09T15:04:04;23.40;59.30
9544;DHT22;30418;51.45933468;7.33152330;2022-09-09T15:06:35;23.40;59.40
9544;DHT22;30418;51.45933468;7.33152330;2022-09-09T15:09:06;23.30;59.60